Aiea, Hawaii
Current Conditions -  °F | °C
As of 12:53 PM on Tuesday 25 Nov 2014 (Local Time) from PHNL Reporting Station
Scattered Clouds Scattered Clouds  
Wind Chill: 27°   Ceiling: Unl
Heat Index: 27°   Visibility: 10mi
Dew Point: 15°   Wind: 14mph
Humidity: 47%   Direction: 50°NE
Pressure: 29.98"   Gusts: 22mph
Location:  21.38°N, 157.93°W
Report Text: PHNL 252253Z 05012G19KT 10SM FEW036 SCT050 27/15 A2998 RMK AO2 SLP151 T02720150
Loading
Personal Weather Stations






























Interactive Weather Map New forecast layout! Learn more

10-Day Weather Forecast

Advertisements
Track Severe Weather on mobile